Details From CYUL - Montreal Pierre E Trudeau Intl
To CYUB - Tuktoyaktuk
Flight Number -
Tags Generated
Created
Modified
Stats Distance 2,253 nm / 4,172 km
Max Altitude 0 ft / 0 m
Waypoints 3
Social Downloads 0
Likes 0
Share VATSIM

Download

Looking for another format? Having issues loading an existing format? Contact us
Advertisement - Login to hide

Notes

Generated

Route

CYUL YUB CYUB

ID Type Via Altitude Latitude Longitude Leg Dist Tot Dist Heading (true) Name
O CYUL APT - 0 ft / 0 m 45.46250˚ -73.76500˚ - 0 nm - -
YUB NDB - 0 ft / 0 m 69.43444˚ -133.01722˚ 2252 nm 2252 nm 330° / 278° TUKTOYAKTUK NDB
O CYUB APT - 0 ft / 0 m 69.43722˚ -133.04250˚ 0 nm 2252 nm 287° / 287° -

Altitude Profile

Advertisement - Login to hide

Weather


0- 5 10 15 20 25 30 35+ Temperature / ° C

Clouds and Precipitation
Forecast for 2017-12-16 00:00 UTC. Updated 2 minutes ago

Ground ~20,000 ft ~40,000 ft Winds

CYUL

Details ICAO CYUL (YUL)
Name Montreal Pierre E Trudeau Intl
Region Canada
Timezone America/Montreal (UTC-5.0)
Stats Elevation 117 ft / 36 m (AMSL)
Location 45.467269° -73.744028°
Runways 3
Magnetic Variation 14.322° W

METAR

CYUL 152117Z 03007KT 15SM -SN BKN040 OVC065 M10/M14 A2987 RMK SC6SC2 SLP119

Decode

TAF

TAF CYUL 152038Z 1521/1618 VRB03KT P6SM BKN040 OVC070 TEMPO 1521/1604 5SM -SN OVC040 FM160400 02005KT 5SM -SN OVC030 FM160600 02005KT 11/2SM -SN BKN015 OVC030 FM161100 03005KT 4SM -SN BKN020 OVC080 FM161300 22008KT P6SM OVC020 BECMG 1613/1615 25015G25KT FM161500 25015G25KT P6SM BKN025 RMK NXT FCST BY 160000Z

Decode

Departure Runways

ID Width Length Bearing (true) Bearing (mag) Surface Threshold Offset Overrun Length
06L 200 ft / 61 m 11,020 ft / 3,359 m 42.62° 56.94° Asphalt 0 ft / 0 m 0 ft / 0 m
06R 200 ft / 61 m 9,706 ft / 2,958 m 41.23° 55.55° Asphalt 0 ft / 0 m 0 ft / 0 m
10 200 ft / 61 m 6,831 ft / 2,082 m 87.45° 101.77° Asphalt 0 ft / 0 m 0 ft / 0 m
24L 200 ft / 61 m 9,706 ft / 2,958 m 221.25° 235.57° Asphalt 0 ft / 0 m 0 ft / 0 m
24R 200 ft / 61 m 11,020 ft / 3,359 m 222.64° 236.96° Asphalt 0 ft / 0 m 0 ft / 0 m
28 200 ft / 61 m 6,831 ft / 2,082 m 267.47° 281.79° Asphalt 0 ft / 0 m 0 ft / 0 m

CYUB

Details ICAO CYUB (YUB)
Name TUKTOYAKTUK
Region Canada
Timezone America/Yellowknife (UTC-7.0)
Stats Elevation 15 ft / 5 m (AMSL)
Location 69.433334° -133.026390°
Runways 1
Magnetic Variation 21.829° E

METAR

CYUB 152100Z 04008KT 3SM -SN OVC050 M12/M13 A2978 RMK SC8 SLP087

Decode

TAF

TAF CYUB 151838Z 1519/1606 05008KT P6SM OVC030 TEMPO 1519/1606 5SM -SN OVC015 RMK NXT FCST BY 160100Z

Decode

Destination Runways

ID Width Length Bearing (true) Bearing (mag) Surface Threshold Offset Overrun Length
09 150 ft / 46 m 5,012 ft / 1,528 m 124.50° 102.67° Gravel 200 ft / 61 m 0 ft / 0 m
27 150 ft / 46 m 5,012 ft / 1,528 m 304.53° 282.70° Gravel 200 ft / 61 m 0 ft / 0 m